Weather History for Wrangell, AK

Change the Weather History Date:

Friday, November 18, 2011

  Actual Average Record
Temperature  
Mean Temperature 27 °F -  
Max Temperature 30 °F 37 °F 52 °F (1952)
Min Temperature 24 °F 29 °F 8 °F (1963)
Degree Days  
Heating Degree Days 38    
Moisture  
Dew Point 13 °F    
Average Humidity 57    
Maximum Humidity 69    
Minimum Humidity 51    
Precipitation  
Precipitation 0.00 in - - ()
Sea Level Pressure  
Sea Level Pressure 29.94 in    
Wind  
Wind Speed 12 mph (East)    
Max Wind Speed 15 mph    
Max Gust Speed 23 mph    
Visibility 10 miles    
Events      
Averages and records for this station are not official NWS values.
T = Trace of Precipitation, MM = Missing Value Source: NWS Daily Summary

Daily Weather History Graph

Daily Weather History Graph

Search for Another Location

Airport:

Trip Planner

Search our weather history database for the weather conditions in past years. The results will help you decide how hot, cold, wet, or windy it might be!

Date:

Astronomy

Nov. 18, 2011 Rise Set
Actual Time 7:34 AM AKST 3:34 PM AKST
Civil Twilight 6:50 AM AKST 4:17 PM AKST
Nautical Twilight 6:04 AM AKST 5:04 PM AKST
Astronomical Twilight 5:19 AM AKST 5:49 PM AKST
Moon 11:55 PM AKST (11/18) 12:39 PM AKST (11/18)
Length of Visible Light 9h 26m
Length of Day
7h 59m
Waning Gibbous, 47% of the Moon is Illuminated
Nov 18
Waning Gibbous
Nov 24
New
Dec 2
First Quarter
Dec 10
Full
Dec 17
Last Quarter

Hourly Weather History & Observations

Time (AKST) Temp. Windchill Dew Point Humidity Pressure Visibility Wind Dir Wind Speed Gust Speed Precip Events Conditions
12:16 AM 30.2 °F 19.3 °F 15.8 °F 55% 29.90 in 10.0 mi East 15.0 mph 21.9 mph N/A   Mostly Cloudy
12:36 AM 30.2 °F 19.3 °F 14.0 °F 51% 29.91 in 10.0 mi East 15.0 mph - N/A   Overcast
12:56 AM 28.4 °F 17.0 °F 14.0 °F 55% 29.91 in 10.0 mi East 15.0 mph 20.7 mph N/A   Mostly Cloudy
1:16 AM 28.4 °F 18.0 °F 15.8 °F 59% 29.93 in 10.0 mi East 12.7 mph 19.6 mph N/A   Scattered Clouds
1:36 AM 28.4 °F 18.0 °F 14.0 °F 55% 29.93 in 10.0 mi East 12.7 mph - N/A   Partly Cloudy
1:56 AM 28.4 °F 17.5 °F 14.0 °F 55% 29.94 in 10.0 mi East 13.8 mph - N/A   Clear
2:16 AM 28.4 °F 17.5 °F 15.8 °F 59% 29.94 in 10.0 mi East 13.8 mph 19.6 mph N/A   Clear
2:36 AM 28.4 °F 18.0 °F 12.2 °F 51% 29.95 in 10.0 mi East 12.7 mph - N/A   Scattered Clouds
2:56 AM 28.4 °F 18.5 °F 12.2 °F 51% 29.94 in 10.0 mi East 11.5 mph 19.6 mph N/A   Partly Cloudy
3:16 AM 28.4 °F 17.0 °F 12.2 °F 51% 29.94 in 10.0 mi East 15.0 mph 18.4 mph N/A   Clear
3:36 AM 28.4 °F 18.5 °F 14.0 °F 55% 29.94 in 10.0 mi East 11.5 mph - N/A   Clear
3:56 AM 28.4 °F 18.5 °F 12.2 °F 51% 29.95 in 10.0 mi East 11.5 mph - N/A   Clear
4:16 AM 28.4 °F 19.1 °F 12.2 °F 51% 29.95 in 10.0 mi East 10.4 mph - N/A   Clear
4:36 AM 26.6 °F 16.2 °F 12.2 °F 55% 29.95 in 10.0 mi East 11.5 mph - N/A   Clear
4:56 AM 26.6 °F 16.8 °F 12.2 °F 55% 29.96 in 10.0 mi East 10.4 mph - N/A   Clear
5:16 AM 26.6 °F 16.2 °F 10.4 °F 51% 29.97 in 10.0 mi East 11.5 mph 16.1 mph N/A   Clear
5:36 AM 26.6 °F 15.7 °F 12.2 °F 55% 29.97 in 10.0 mi ESE 12.7 mph - N/A   Clear
5:56 AM 26.6 °F 15.2 °F 12.2 °F 55% 29.97 in 10.0 mi East 13.8 mph - N/A   Clear
6:16 AM 26.6 °F 14.7 °F 12.2 °F 55% 29.97 in 10.0 mi East 15.0 mph 20.7 mph N/A   Clear
6:36 AM 26.6 °F 15.7 °F 12.2 °F 55% 29.98 in 10.0 mi East 12.7 mph - N/A   Clear
6:56 AM 26.6 °F 14.7 °F 12.2 °F 55% 29.97 in 10.0 mi East 15.0 mph - N/A   Clear
7:16 AM 26.6 °F 15.2 °F 12.2 °F 55% 29.97 in 10.0 mi East 13.8 mph - N/A   Clear
7:36 AM 26.6 °F 14.7 °F 10.4 °F 51% 29.97 in 10.0 mi East 15.0 mph 23.0 mph N/A   Clear
7:56 AM 26.6 °F 14.7 °F 12.2 °F 55% 29.97 in 10.0 mi East 15.0 mph - N/A   Partly Cloudy
8:16 AM 26.6 °F 15.2 °F 12.2 °F 55% 29.97 in 10.0 mi East 13.8 mph - N/A   Partly Cloudy
8:36 AM 26.6 °F 15.7 °F 12.2 °F 55% 29.96 in 10.0 mi East 12.7 mph 18.4 mph N/A   Partly Cloudy
8:56 AM 26.6 °F 15.7 °F 12.2 °F 55% 29.96 in 10.0 mi East 12.7 mph - N/A   Clear
9:16 AM 26.6 °F 15.2 °F 14.0 °F 59% 29.95 in 10.0 mi East 13.8 mph - N/A   Clear
9:36 AM 24.8 °F 14.0 °F 12.2 °F 59% 29.96 in 10.0 mi East 11.5 mph 17.3 mph N/A   Clear
9:56 AM 26.6 °F 15.2 °F 12.2 °F 55% 29.95 in 10.0 mi ENE 13.8 mph - N/A   Clear
10:16 AM 26.6 °F 16.8 °F 14.0 °F 59% 29.95 in 10.0 mi East 10.4 mph - N/A   Clear
10:36 AM 26.6 °F 17.5 °F 12.2 °F 55% 29.94 in 10.0 mi ESE 9.2 mph - N/A   Clear
10:56 AM 26.6 °F 16.2 °F 14.0 °F 59% 29.94 in 10.0 mi East 11.5 mph - N/A   Clear
11:16 AM 26.6 °F 16.8 °F 12.2 °F 55% 29.94 in 10.0 mi East 10.4 mph - N/A   Clear
11:36 AM 26.6 °F 16.8 °F 14.0 °F 59% 29.94 in 10.0 mi ESE 10.4 mph - N/A   Scattered Clouds
11:56 AM 26.6 °F 17.5 °F 12.2 °F 55% 29.94 in 10.0 mi East 9.2 mph - N/A   Mostly Cloudy
12:16 PM 26.6 °F 18.2 °F 14.0 °F 59% 29.94 in 10.0 mi ESE 8.1 mph - N/A   Mostly Cloudy
12:36 PM 26.6 °F 19.1 °F 12.2 °F 55% 29.94 in 10.0 mi East 6.9 mph - N/A   Mostly Cloudy
12:56 PM 26.6 °F 16.8 °F 12.2 °F 55% 29.93 in 10.0 mi ENE 10.4 mph - N/A   Mostly Cloudy
1:16 PM 26.6 °F 22.6 °F 14.0 °F 59% 29.94 in 10.0 mi NNE 3.5 mph - N/A   Mostly Cloudy
1:36 PM 26.6 °F 22.6 °F 15.8 °F 64% 29.94 in 10.0 mi NW 3.5 mph - N/A   Mostly Cloudy
1:56 PM 26.6 °F 17.5 °F 15.8 °F 64% 29.92 in 10.0 mi ENE 9.2 mph - N/A   Mostly Cloudy
2:16 PM 26.6 °F 16.2 °F 15.8 °F 64% 29.92 in 10.0 mi East 11.5 mph - N/A   Mostly Cloudy
2:36 PM 26.6 °F 17.5 °F 14.0 °F 59% 29.92 in 10.0 mi East 9.2 mph - N/A   Mostly Cloudy
2:56 PM 26.6 °F 19.1 °F 15.8 °F 64% 29.92 in 10.0 mi East 6.9 mph - N/A   Scattered Clouds
3:16 PM 26.6 °F 18.2 °F 14.0 °F 59% 29.91 in 10.0 mi East 8.1 mph - N/A   Scattered Clouds
3:36 PM 26.6 °F 17.5 °F 14.0 °F 59% 29.91 in 10.0 mi East 9.2 mph - N/A   Scattered Clouds
3:56 PM 24.8 °F 14.6 °F 14.0 °F 64% 29.91 in 10.0 mi East 10.4 mph - N/A   Overcast
4:16 PM 26.6 °F 16.8 °F 14.0 °F 59% 29.90 in 10.0 mi East 10.4 mph - N/A   Overcast
4:36 PM 26.6 °F 17.5 °F 15.8 °F 64% 29.90 in 10.0 mi ENE 9.2 mph - N/A   Overcast
4:56 PM 26.6 °F 19.1 °F 15.8 °F 64% 29.90 in 10.0 mi ENE 6.9 mph - N/A   Overcast
5:16 PM 24.8 °F 16.9 °F 15.8 °F 69% 29.90 in 10.0 mi East 6.9 mph - N/A   Overcast
5:36 PM 26.6 °F 18.2 °F 14.0 °F 59% 29.90 in 10.0 mi East 8.1 mph - N/A   Overcast
5:56 PM 24.8 °F 16.9 °F 15.8 °F 69% 29.89 in 10.0 mi East 6.9 mph - N/A   Overcast
6:16 PM 24.8 °F 17.9 °F 15.8 °F 69% 29.89 in 10.0 mi East 5.8 mph - N/A   Overcast
6:36 PM 24.8 °F 16.9 °F 14.0 °F 64% 29.89 in 10.0 mi East 6.9 mph - N/A   Overcast
6:56 PM 24.8 °F 19.1 °F 15.8 °F 69% 29.89 in 10.0 mi East 4.6 mph - N/A   Overcast
7:16 PM 24.8 °F 16.9 °F 15.8 °F 69% 29.88 in 10.0 mi East 6.9 mph - N/A   Overcast
7:36 PM 24.8 °F 17.9 °F 14.0 °F 64% 29.88 in 10.0 mi East 5.8 mph - N/A   Overcast
7:56 PM 24.8 °F 16.9 °F 15.8 °F 69% 29.88 in 10.0 mi East 6.9 mph - N/A   Overcast
8:16 PM 24.8 °F 17.9 °F 15.8 °F 69% 29.88 in 10.0 mi East 5.8 mph - N/A   Overcast
8:36 PM 24.8 °F 16.1 °F 15.8 °F 69% 29.88 in 10.0 mi East 8.1 mph - N/A   Overcast
8:56 PM 24.8 °F 17.9 °F 15.8 °F 69% 29.88 in 10.0 mi East 5.8 mph - N/A   Overcast
9:16 PM 24.8 °F 19.1 °F 15.8 °F 69% 29.88 in 10.0 mi East 4.6 mph - N/A   Overcast
9:36 PM 24.8 °F - 14.0 °F 64% 29.88 in 10.0 mi Calm Calm - N/A   Overcast
9:56 PM 24.8 °F 19.1 °F 15.8 °F 69% 29.88 in 10.0 mi NNW 4.6 mph - N/A   Overcast
10:16 PM 24.8 °F 16.9 °F 14.0 °F 64% 29.88 in 10.0 mi NNW 6.9 mph - N/A   Overcast
10:36 PM 24.8 °F 17.9 °F 14.0 °F 64% 29.89 in 10.0 mi NW 5.8 mph - N/A   Overcast
10:56 PM 24.8 °F - 15.8 °F 69% 29.88 in 10.0 mi Calm Calm - N/A   Overcast
11:16 PM 24.8 °F - 14.0 °F 64% 29.88 in 10.0 mi Calm Calm - N/A   Overcast
11:36 PM 24.8 °F 16.9 °F 14.0 °F 64% 29.88 in 10.0 mi ESE 6.9 mph - N/A   Overcast
11:56 PM 24.8 °F 14.6 °F 14.0 °F 64% 29.88 in 10.0 mi NNW 10.4 mph - N/A   Overcast